Time;durP1;ratioP1;P1;durP2;ratioP2;P2;SDS_P1;SDS_P2;PMS_P1;PMS_P2;Temp;Humidity;BMP_temperature;BMP_pressure;BME280_temperature;BME280_humidity;BME280_pressure;Samples;Min_cycle;Max_cycle;Signal;HPM_P1;HPM_P2
2021/05/20 00:01:43;;;;;;;7.63;5.75;;;;;;;;;;5070977;28;20045;-83
2021/05/20 00:04:09;;;;;;;7.82;5.63;;;;;;;;;;5070975;28;20032;-83
2021/05/20 00:06:35;;;;;;;12.93;6.45;;;;;;;;;;5070943;28;20037;-83
2021/05/20 00:09:01;;;;;;;10.25;7.03;;;;;;;;;;5070985;28;20036;-81
2021/05/20 00:11:27;;;;;;;12.15;7.28;;;;;;;;;;5072301;28;20044;-83
2021/05/20 00:13:53;;;;;;;10.82;7.22;;;;;;;;;;5070855;28;20036;-83
2021/05/20 00:16:20;;;;;;;7.97;5.65;;;;;;;;;;5070754;28;20032;-82
2021/05/20 00:18:46;;;;;;;10.00;7.22;;;;;;;;;;5071984;28;20476;-82
2021/05/20 00:21:14;;;;;;;10.85;6.80;;;;;;;;;;5071921;28;20037;-83
2021/05/20 00:23:40;;;;;;;12.00;7.20;;;;;;;;;;5070707;28;20048;-82
2021/05/20 00:26:06;;;;;;;10.98;6.63;;;;;;;;;;5071879;28;20107;-82
2021/05/20 00:28:32;;;;;;;12.40;7.05;;;;;;;;;;5054232;28;20037;-83
2021/05/20 00:30:58;;;;;;;9.45;6.38;;;;;;;;;;5070918;28;20047;-82
2021/05/20 00:33:24;;;;;;;8.57;6.25;;;;;;;;;;5071862;28;20120;-82
2021/05/20 00:35:50;;;;;;;9.35;5.93;;;;;;;;;;5071912;28;20044;-82
2021/05/20 00:38:16;;;;;;;9.05;5.68;;;;;;;;;;5071580;28;20056;-82
2021/05/20 00:40:42;;;;;;;8.45;5.68;;;;;;;;;;5070564;28;20373;-82
2021/05/20 00:43:08;;;;;;;8.43;5.72;;;;;;;;;;5070538;28;20484;-82
2021/05/20 00:45:34;;;;;;;9.05;6.38;;;;;;;;;;5074195;28;20047;-80
2021/05/20 00:48:00;;;;;;;9.25;6.03;;;;;;;;;;5074619;28;20484;-82
2021/05/20 00:50:26;;;;;;;9.27;6.10;;;;;;;;;;5074413;28;20503;-83
2021/05/20 00:52:52;;;;;;;6.68;5.25;;;;;;;;;;5075490;28;20041;-83
2021/05/20 00:55:20;;;;;;;7.05;4.93;;;;;;;;;;5074318;28;20037;-82
2021/05/20 00:57:47;;;;;;;7.68;5.50;;;;;;;;;;5074147;28;20044;-82
2021/05/20 01:00:13;;;;;;;7.00;5.40;;;;;;;;;;5074068;28;20045;-83
2021/05/20 01:02:40;;;;;;;8.40;6.25;;;;;;;;;;5075309;28;20059;-83
2021/05/20 01:05:06;;;;;;;6.88;5.45;;;;;;;;;;5074171;28;20506;-82
2021/05/20 01:07:32;;;;;;;9.60;6.25;;;;;;;;;;5074054;28;20068;-83
2021/05/20 01:09:59;;;;;;;8.73;6.10;;;;;;;;;;5075202;28;20040;-83
2021/05/20 01:12:25;;;;;;;7.93;5.72;;;;;;;;;;5075143;28;20039;-83
2021/05/20 01:14:51;;;;;;;8.25;5.00;;;;;;;;;;5073930;28;20039;-83
2021/05/20 01:17:17;;;;;;;7.30;5.90;;;;;;;;;;5057321;28;20039;-81
2021/05/20 01:19:44;;;;;;;8.88;5.78;;;;;;;;;;5073841;28;20041;-83
2021/05/20 01:22:11;;;;;;;8.20;5.60;;;;;;;;;;5057196;28;20042;-83
2021/05/20 01:24:37;;;;;;;8.35;5.75;;;;;;;;;;5073689;28;20480;-82
2021/05/20 01:27:03;;;;;;;9.23;6.22;;;;;;;;;;5073690;28;20047;-83
2021/05/20 01:29:29;;;;;;;9.43;6.60;;;;;;;;;;5057191;28;20075;-83
2021/05/20 01:31:56;;;;;;;8.13;6.13;;;;;;;;;;5074778;28;20036;-83
2021/05/20 01:34:22;;;;;;;8.93;6.00;;;;;;;;;;5073482;28;20037;-83
2021/05/20 01:36:48;;;;;;;8.20;5.78;;;;;;;;;;5074511;28;20452;-83
2021/05/20 01:39:14;;;;;;;13.05;6.20;;;;;;;;;;5073444;28;20033;-82
2021/05/20 01:41:40;;;;;;;7.85;5.85;;;;;;;;;;5073390;28;20101;-83
2021/05/20 01:44:06;;;;;;;6.78;5.75;;;;;;;;;;5075151;28;20043;-82
2021/05/20 01:46:32;;;;;;;8.00;5.60;;;;;;;;;;5074472;28;20040;-83
2021/05/20 01:48:58;;;;;;;7.20;5.53;;;;;;;;;;5073360;28;20042;-83
2021/05/20 01:51:24;;;;;;;8.15;5.50;;;;;;;;;;5073170;28;20044;-83
2021/05/20 01:53:51;;;;;;;6.13;4.78;;;;;;;;;;5074402;28;20044;-83
2021/05/20 01:56:18;;;;;;;5.80;4.70;;;;;;;;;;5072070;28;20119;-83
2021/05/20 01:58:44;;;;;;;5.10;4.35;;;;;;;;;;5073208;28;20040;-83
2021/05/20 02:01:10;;;;;;;6.88;4.75;;;;;;;;;;5056575;28;20075;-83
2021/05/20 02:03:37;;;;;;;6.97;5.13;;;;;;;;;;5073097;28;20451;-83
2021/05/20 02:06:03;;;;;;;6.15;5.22;;;;;;;;;;5056276;28;20480;-83
2021/05/20 02:08:33;;;;;;;6.40;5.32;;;;;;;;;;5074169;28;20041;-83
2021/05/20 02:11:00;;;;;;;7.45;5.63;;;;;;;;;;5072768;28;20048;-83
2021/05/20 02:13:26;;;;;;;7.35;5.93;;;;;;;;;;5056256;28;20036;-83
2021/05/20 02:15:52;;;;;;;8.82;6.32;;;;;;;;;;5056201;28;20051;-83
2021/05/20 02:18:18;;;;;;;8.75;5.90;;;;;;;;;;5055947;28;20533;-83
2021/05/20 02:20:44;;;;;;;8.25;6.18;;;;;;;;;;5072605;28;20040;-83
2021/05/20 02:23:12;;;;;;;7.95;6.60;;;;;;;;;;5072600;28;20093;-83
2021/05/20 02:25:38;;;;;;;8.25;6.22;;;;;;;;;;5072720;28;20040;-83
2021/05/20 02:28:06;;;;;;;10.20;6.57;;;;;;;;;;5056169;28;20086;-84
2021/05/20 02:30:32;;;;;;;9.02;6.18;;;;;;;;;;5055831;28;20110;-83
2021/05/20 02:32:58;;;;;;;8.52;6.53;;;;;;;;;;5072389;28;20426;-83
2021/05/20 02:35:24;;;;;;;8.20;5.80;;;;;;;;;;5073647;28;20040;-83
2021/05/20 02:37:50;;;;;;;6.43;5.70;;;;;;;;;;5055612;28;20083;-83
2021/05/20 02:40:16;;;;;;;7.68;5.80;;;;;;;;;;5055676;28;20395;-82
2021/05/20 02:42:42;;;;;;;7.45;5.70;;;;;;;;;;5055659;28;20414;-83
2021/05/20 02:45:09;;;;;;;8.73;6.63;;;;;;;;;;5073997;28;20036;-83
2021/05/20 02:47:36;;;;;;;8.20;6.20;;;;;;;;;;5072004;28;20040;-83
2021/05/20 02:50:02;;;;;;;11.05;6.70;;;;;;;;;;5072017;28;20481;-83
2021/05/20 02:52:29;;;;;;;8.55;6.50;;;;;;;;;;5055786;28;20071;-83
2021/05/20 02:54:57;;;;;;;8.40;6.28;;;;;;;;;;5071864;28;20071;-83
2021/05/20 02:57:23;;;;;;;8.70;6.57;;;;;;;;;;5071884;28;20067;-83
2021/05/20 02:59:49;;;;;;;7.95;5.72;;;;;;;;;;5071776;28;20041;-84
2021/05/20 03:02:15;;;;;;;5.95;5.35;;;;;;;;;;5071861;28;20032;-82
2021/05/20 03:04:41;;;;;;;7.45;5.70;;;;;;;;;;5055344;28;20072;-84
2021/05/20 03:07:08;;;;;;;7.13;5.50;;;;;;;;;;5071587;28;20377;-84
2021/05/20 03:09:34;;;;;;;7.95;6.10;;;;;;;;;;5071693;28;20048;-84
2021/05/20 03:12:00;;;;;;;7.57;6.10;;;;;;;;;;5055131;28;20044;-82
2021/05/20 03:14:26;;;;;;;9.82;7.57;;;;;;;;;;5071581;28;20399;-84
2021/05/20 03:16:52;;;;;;;9.20;6.68;;;;;;;;;;5071472;28;20044;-84
2021/05/20 03:19:18;;;;;;;8.00;6.35;;;;;;;;;;5071455;28;20028;-84
2021/05/20 03:21:45;;;;;;;8.45;6.57;;;;;;;;;;5071497;28;20037;-84
2021/05/20 03:24:13;;;;;;;9.10;5.97;;;;;;;;;;5055197;28;20404;-84
2021/05/20 03:26:41;;;;;;;9.48;6.53;;;;;;;;;;5071441;28;20045;-84
2021/05/20 03:29:07;;;;;;;10.50;7.18;;;;;;;;;;5071156;28;20044;-84
2021/05/20 03:31:33;;;;;;;8.20;6.35;;;;;;;;;;5071309;28;20044;-83
2021/05/20 03:33:59;;;;;;;6.95;5.55;;;;;;;;;;5071469;28;20041;-83
2021/05/20 03:36:25;;;;;;;9.85;6.20;;;;;;;;;;5071279;28;20048;-83
2021/05/20 03:38:51;;;;;;;12.05;7.50;;;;;;;;;;5071143;28;20076;-82
2021/05/20 03:41:17;;;;;;;10.02;6.68;;;;;;;;;;5071138;28;20041;-83
2021/05/20 03:43:43;;;;;;;8.68;6.05;;;;;;;;;;5071238;28;20029;-83
2021/05/20 03:46:09;;;;;;;10.23;7.18;;;;;;;;;;5071197;28;20074;-83
2021/05/20 03:48:36;;;;;;;10.32;7.80;;;;;;;;;;5071108;28;20037;-82
2021/05/20 03:51:03;;;;;;;12.10;8.15;;;;;;;;;;5071056;28;20068;-82
2021/05/20 03:53:31;;;;;;;11.15;7.50;;;;;;;;;;5072234;28;20043;-82
2021/05/20 03:55:57;;;;;;;14.25;9.00;;;;;;;;;;5072234;28;20040;-82
2021/05/20 03:58:23;;;;;;;9.95;7.28;;;;;;;;;;5071905;28;20061;-82
2021/05/20 04:00:49;;;;;;;12.27;8.15;;;;;;;;;;5070934;28;20388;-83
2021/05/20 04:03:31;;;;;;;11.65;8.43;;;;;;;;;;5054254;28;20086;-83
2021/05/20 04:05:58;;;;;;;13.10;8.25;;;;;;;;;;5072127;28;20142;-82
2021/05/20 04:08:24;;;;;;;11.95;7.32;;;;;;;;;;5070850;28;20403;-83
2021/05/20 04:10:51;;;;;;;11.68;8.18;;;;;;;;;;5070770;28;20063;-83
2021/05/20 04:13:27;;;;;;;13.70;8.77;;;;;;;;;;5070859;28;20037;-84
2021/05/20 04:15:53;;;;;;;13.82;9.15;;;;;;;;;;5070793;28;20101;-83
2021/05/20 04:18:19;;;;;;;19.40;11.27;;;;;;;;;;5070713;28;20039;-84
2021/05/20 04:20:45;;;;;;;16.52;9.45;;;;;;;;;;5076202;28;20040;-84
2021/05/20 04:23:11;;;;;;;17.40;10.93;;;;;;;;;;5074956;28;20036;-83
2021/05/20 04:25:39;;;;;;;18.38;11.70;;;;;;;;;;5074949;28;20044;-83
2021/05/20 04:28:05;;;;;;;20.90;12.38;;;;;;;;;;5058218;28;20399;-83
2021/05/20 04:30:31;;;;;;;25.85;14.18;;;;;;;;;;5058171;28;20055;-83
2021/05/20 04:32:57;;;;;;;18.35;12.23;;;;;;;;;;5075890;28;20448;-83
2021/05/20 04:35:23;;;;;;;23.35;13.38;;;;;;;;;;5058111;28;20032;-83
2021/05/20 04:37:49;;;;;;;22.50;14.55;;;;;;;;;;5057634;28;20049;-83
2021/05/20 04:40:15;;;;;;;18.17;10.95;;;;;;;;;;5074746;28;20072;-83
2021/05/20 04:42:41;;;;;;;18.30;11.63;;;;;;;;;;5074498;28;20472;-83
2021/05/20 04:45:07;;;;;;;21.08;13.60;;;;;;;;;;5057813;28;20045;-83
2021/05/20 04:47:33;;;;;;;20.73;12.88;;;;;;;;;;5057735;28;20095;-83
2021/05/20 04:49:59;;;;;;;22.73;14.52;;;;;;;;;;5074267;28;20064;-83
2021/05/20 04:52:25;;;;;;;23.25;13.30;;;;;;;;;;5074153;28;20052;-84
2021/05/20 04:54:51;;;;;;;20.77;13.18;;;;;;;;;;5075196;28;20123;-83
2021/05/20 04:57:17;;;;;;;17.92;11.52;;;;;;;;;;5075588;28;20033;-83
2021/05/20 04:59:43;;;;;;;20.15;12.55;;;;;;;;;;5057521;28;20044;-83
2021/05/20 05:02:09;;;;;;;15.45;10.50;;;;;;;;;;5074015;28;20174;-83
2021/05/20 05:04:35;;;;;;;25.67;15.05;;;;;;;;;;5075160;28;20115;-83
2021/05/20 05:07:01;;;;;;;25.60;16.65;;;;;;;;;;5073957;28;20032;-84
2021/05/20 05:09:27;;;;;;;22.00;12.75;;;;;;;;;;5073938;28;20115;-83
2021/05/20 05:11:54;;;;;;;18.25;12.32;;;;;;;;;;5057389;28;20094;-82
2021/05/20 05:14:20;;;;;;;25.05;15.75;;;;;;;;;;5073802;28;20037;-83
2021/05/20 05:16:46;;;;;;;26.50;15.88;;;;;;;;;;5075077;28;20529;-83
2021/05/20 05:19:12;;;;;;;21.98;14.15;;;;;;;;;;5073772;28;20040;-83
2021/05/20 05:21:38;;;;;;;15.25;11.27;;;;;;;;;;5075272;28;20098;-83
2021/05/20 05:24:04;;;;;;;18.75;12.73;;;;;;;;;;5057053;28;20048;-84
2021/05/20 05:26:32;;;;;;;21.48;14.35;;;;;;;;;;5073679;28;20070;-84
2021/05/20 05:28:58;;;;;;;18.05;12.32;;;;;;;;;;5074882;28;20064;-84
2021/05/20 05:31:26;;;;;;;22.27;14.13;;;;;;;;;;5073918;28;20052;-84
2021/05/20 05:33:52;;;;;;;21.73;14.25;;;;;;;;;;5073630;28;20044;-84
2021/05/20 05:36:18;;;;;;;27.38;16.10;;;;;;;;;;5073525;28;20086;-85
2021/05/20 05:38:44;;;;;;;16.90;12.00;;;;;;;;;;5074599;28;20048;-84
2021/05/20 05:41:11;;;;;;;17.98;11.95;;;;;;;;;;5073520;28;20439;-83
2021/05/20 05:43:37;;;;;;;20.33;14.95;;;;;;;;;;5074597;28;20039;-83
2021/05/20 05:46:03;;;;;;;25.58;15.73;;;;;;;;;;5074530;28;20116;-84
2021/05/20 05:48:29;;;;;;;16.60;12.18;;;;;;;;;;5073350;28;20120;-83
2021/05/20 05:50:57;;;;;;;19.63;13.10;;;;;;;;;;5074460;28;20083;-84
2021/05/20 05:53:24;;;;;;;16.83;12.90;;;;;;;;;;5073201;28;20067;-84
2021/05/20 05:55:51;;;;;;;17.42;13.07;;;;;;;;;;5073322;28;20032;-84
2021/05/20 05:58:17;;;;;;;14.77;11.80;;;;;;;;;;5056792;28;20097;-86
2021/05/20 06:00:44;;;;;;;15.93;12.43;;;;;;;;;;5073105;28;20181;-83
2021/05/20 06:03:10;;;;;;;15.07;12.18;;;;;;;;;;5072895;28;20051;-84
2021/05/20 06:05:36;;;;;;;15.05;11.35;;;;;;;;;;5073050;28;20044;-83
2021/05/20 06:08:02;;;;;;;18.83;13.40;;;;;;;;;;5072922;28;20072;-82
2021/05/20 06:10:29;;;;;;;16.00;13.18;;;;;;;;;;5074095;28;20480;-81
2021/05/20 06:12:55;;;;;;;16.27;12.75;;;;;;;;;;5072891;28;20044;-81
2021/05/20 06:15:21;;;;;;;13.80;11.68;;;;;;;;;;5074216;28;20033;-83
2021/05/20 06:17:47;;;;;;;12.90;10.85;;;;;;;;;;5073811;28;20120;-82
2021/05/20 06:20:13;;;;;;;14.43;11.20;;;;;;;;;;5072837;28;20112;-82
2021/05/20 06:22:39;;;;;;;15.18;11.82;;;;;;;;;;5073875;28;20036;-81
2021/05/20 06:25:06;;;;;;;17.45;12.80;;;;;;;;;;5073840;28;20033;-86
2021/05/20 06:27:33;;;;;;;14.23;11.45;;;;;;;;;;5056089;28;20093;-86
2021/05/20 06:29:59;;;;;;;12.82;11.35;;;;;;;;;;5072625;28;20044;-86
2021/05/20 06:32:25;;;;;;;16.45;11.10;;;;;;;;;;5075908;28;20119;-88
2021/05/20 06:34:51;;;;;;;12.30;11.02;;;;;;;;;;5073300;28;20154;-89
2021/05/20 06:37:17;;;;;;;14.73;11.68;;;;;;;;;;5072257;28;20049;-88
2021/05/20 06:39:43;;;;;;;13.57;11.27;;;;;;;;;;5072264;28;20041;-88
2021/05/20 06:42:10;;;;;;;13.77;11.50;;;;;;;;;;5071789;28;20033;-85
2021/05/20 06:44:40;;;;;;;14.02;11.38;;;;;;;;;;5072039;28;20040;-84
2021/05/20 06:47:06;;;;;;;15.02;12.32;;;;;;;;;;5073249;28;20059;-85
2021/05/20 06:49:32;;;;;;;14.60;11.38;;;;;;;;;;5072144;28;20032;-85
2021/05/20 06:51:58;;;;;;;14.25;11.80;;;;;;;;;;5072050;28;20048;-85
2021/05/20 06:54:24;;;;;;;14.07;11.25;;;;;;;;;;5068246;28;20035;-85
2021/05/20 06:56:54;;;;;;;14.27;11.70;;;;;;;;;;5070692;28;20068;-84
2021/05/20 07:02:05;;;;;;;14.40;11.57;;;;;;;;;;5071416;28;20040;-86
2021/05/20 07:04:31;;;;;;;15.43;10.90;;;;;;;;;;5055102;28;20048;-85
2021/05/20 07:07:02;;;;;;;15.80;11.25;;;;;;;;;;5071813;28;20036;-85
2021/05/20 07:09:28;;;;;;;14.52;11.02;;;;;;;;;;5055803;28;20040;-83
2021/05/20 07:11:55;;;;;;;13.63;11.27;;;;;;;;;;5055026;28;20037;-83
2021/05/20 07:14:21;;;;;;;12.75;9.77;;;;;;;;;;5054386;28;20435;-84
2021/05/20 07:16:47;;;;;;;12.77;10.48;;;;;;;;;;5088042;28;20036;-84
2021/05/20 07:19:13;;;;;;;18.77;10.32;;;;;;;;;;5071260;28;20037;-84
2021/05/20 07:21:39;;;;;;;12.02;10.15;;;;;;;;;;5071398;28;20048;-85
2021/05/20 07:24:05;;;;;;;11.95;9.70;;;;;;;;;;5071636;28;20033;-84
2021/05/20 07:26:31;;;;;;;11.30;9.88;;;;;;;;;;5088172;28;20032;-84
2021/05/20 07:29:01;;;;;;;11.02;9.00;;;;;;;;;;5071600;28;20052;-84
2021/05/20 07:31:27;;;;;;;10.65;9.05;;;;;;;;;;5071433;28;20068;-83
2021/05/20 07:33:53;;;;;;;10.40;8.68;;;;;;;;;;5088333;28;20047;-84
2021/05/20 07:36:21;;;;;;;10.50;9.35;;;;;;;;;;5072508;28;20479;-84
2021/05/20 07:38:47;;;;;;;13.48;9.50;;;;;;;;;;5072434;28;20103;-84
2021/05/20 07:41:13;;;;;;;11.30;8.80;;;;;;;;;;5072325;28;20080;-84
2021/05/20 07:43:39;;;;;;;10.43;8.52;;;;;;;;;;5071225;28;20119;-85
2021/05/20 07:46:04;;;;;;;10.63;9.05;;;;;;;;;;5087987;28;20111;-84
2021/05/20 07:48:33;;;;;;;10.93;8.55;;;;;;;;;;5072414;28;20548;-83
2021/05/20 07:51:01;;;;;;;11.23;9.23;;;;;;;;;;5087726;28;20098;-83
2021/05/20 07:53:27;;;;;;;11.95;8.60;;;;;;;;;;5087090;28;20044;-83
2021/05/20 07:55:53;;;;;;;8.77;7.60;;;;;;;;;;5072386;28;20040;-83
2021/05/20 07:58:19;;;;;;;7.88;7.07;;;;;;;;;;5087727;28;20075;-84
2021/05/20 08:00:45;;;;;;;9.05;7.90;;;;;;;;;;5087776;28;20041;-83
2021/05/20 08:05:41;;;;;;;9.57;7.45;;;;;;;;;;5072258;28;20041;-84
2021/05/20 08:08:29;;;;;;;10.15;7.38;;;;;;;;;;5070751;28;20041;-82
2021/05/20 08:11:06;;;;;;;8.00;6.85;;;;;;;;;;5071030;28;20174;-84
2021/05/20 08:13:33;;;;;;;9.32;6.50;;;;;;;;;;5071045;28;20081;-85
2021/05/20 08:15:59;;;;;;;7.15;6.35;;;;;;;;;;5072219;28;20036;-85
2021/05/20 08:18:25;;;;;;;7.55;6.45;;;;;;;;;;5087712;28;20060;-85
2021/05/20 08:20:51;;;;;;;9.00;6.28;;;;;;;;;;5087373;28;20043;-85
2021/05/20 08:23:17;;;;;;;8.40;5.38;;;;;;;;;;5071920;28;20440;-84
2021/05/20 08:25:43;;;;;;;7.68;5.45;;;;;;;;;;5071814;28;20036;-83
2021/05/20 08:28:09;;;;;;;6.90;4.88;;;;;;;;;;5087301;28;20037;-84
2021/05/20 08:30:36;;;;;;;5.25;4.20;;;;;;;;;;5087312;28;20109;-84
2021/05/20 08:33:02;;;;;;;5.28;4.72;;;;;;;;;;5087325;28;20040;-83
2021/05/20 08:35:28;;;;;;;5.63;4.35;;;;;;;;;;5070766;28;20458;-85
2021/05/20 08:37:54;;;;;;;4.65;3.70;;;;;;;;;;5070422;28;20099;-84
2021/05/20 08:40:20;;;;;;;8.98;4.72;;;;;;;;;;5071639;28;20043;-84
2021/05/20 08:42:46;;;;;;;4.45;3.80;;;;;;;;;;5070508;28;20033;-84
2021/05/20 08:45:13;;;;;;;5.55;3.80;;;;;;;;;;5071619;28;20044;-84
2021/05/20 08:47:39;;;;;;;5.65;3.80;;;;;;;;;;5071593;28;20036;-83
2021/05/20 08:50:05;;;;;;;5.35;3.78;;;;;;;;;;5087273;28;20044;-83
2021/05/20 08:52:32;;;;;;;5.47;4.18;;;;;;;;;;5072738;28;20040;-85
2021/05/20 08:54:58;;;;;;;5.10;4.18;;;;;;;;;;5070363;28;20480;-86
2021/05/20 08:57:24;;;;;;;5.25;3.83;;;;;;;;;;5087031;28;20044;-85
2021/05/20 08:59:51;;;;;;;4.22;3.80;;;;;;;;;;5086975;28;20048;-85
2021/05/20 09:02:24;;;;;;;6.97;4.53;;;;;;;;;;5071459;28;20032;-85
2021/05/20 09:04:57;;;;;;;4.13;3.80;;;;;;;;;;5087703;28;20036;-84
2021/05/20 09:07:35;;;;;;;6.07;4.30;;;;;;;;;;5090902;28;20036;-85
2021/05/20 09:10:07;;;;;;;5.28;3.83;;;;;;;;;;5074115;28;20438;-84
2021/05/20 09:12:33;;;;;;;4.63;3.95;;;;;;;;;;5090965;28;20186;-85
2021/05/20 09:14:59;;;;;;;5.63;4.40;;;;;;;;;;5075316;28;20527;-85
2021/05/20 09:17:25;;;;;;;6.20;3.97;;;;;;;;;;5090866;28;20037;-85
2021/05/20 09:19:55;;;;;;;4.30;3.83;;;;;;;;;;5090800;28;20115;-84
2021/05/20 09:22:21;;;;;;;3.40;3.10;;;;;;;;;;5074035;28;20383;-85
2021/05/20 09:24:48;;;;;;;3.42;2.80;;;;;;;;;;5073845;28;20045;-83
2021/05/20 09:27:27;;;;;;;2.85;2.65;;;;;;;;;;5090723;28;20399;-85
2021/05/20 09:30:09;;;;;;;2.60;2.40;;;;;;;;;;5075060;28;20039;-84
2021/05/20 09:32:37;;;;;;;3.00;2.38;;;;;;;;;;5071508;28;20075;-84
2021/05/20 09:35:03;;;;;;;4.32;2.53;;;;;;;;;;5073796;28;20044;-85
2021/05/20 09:37:29;;;;;;;3.63;2.50;;;;;;;;;;5073610;28;20040;-85
2021/05/20 09:39:59;;;;;;;4.97;2.72;;;;;;;;;;5073472;28;20047;-89
2021/05/20 09:42:25;;;;;;;3.10;2.90;;;;;;;;;;5057176;28;20044;-91
2021/05/20 09:44:51;;;;;;;5.00;2.60;;;;;;;;;;5057207;28;20063;-86
2021/05/20 09:47:19;;;;;;;3.88;2.88;;;;;;;;;;5058358;28;20033;-87
2021/05/20 09:49:56;;;;;;;3.92;2.70;;;;;;;;;;5074381;28;20063;-86
2021/05/20 09:52:22;;;;;;;4.15;2.33;;;;;;;;;;5073351;28;20086;-86
2021/05/20 09:54:48;;;;;;;3.50;2.60;;;;;;;;;;5073321;28;20086;-86
2021/05/20 09:57:28;;;;;;;2.88;2.17;;;;;;;;;;5073213;28;20037;-86
2021/05/20 10:00:10;;;;;;;2.58;2.28;;;;;;;;;;5073229;28;20465;-86
2021/05/20 10:02:36;;;;;;;2.20;1.85;;;;;;;;;;5073346;28;20040;-87
2021/05/20 10:05:18;;;;;;;3.30;2.10;;;;;;;;;;5056548;28;20036;-86
2021/05/20 10:07:44;;;;;;;2.58;1.85;;;;;;;;;;5056024;28;20047;-86
2021/05/20 10:10:10;;;;;;;2.45;1.85;;;;;;;;;;5056441;28;20123;-85
2021/05/20 10:12:39;;;;;;;3.10;2.10;;;;;;;;;;5073309;28;20037;-86
2021/05/20 10:15:05;;;;;;;10.65;1.77;;;;;;;;;;5056683;28;20048;-86
2021/05/20 10:17:31;;;;;;;4.15;1.38;;;;;;;;;;5072034;28;20032;-86
2021/05/20 10:19:59;;;;;;;3.65;2.08;;;;;;;;;;5072910;28;20041;-86
2021/05/20 10:22:25;;;;;;;3.85;2.00;;;;;;;;;;5072942;28;20036;-86
2021/05/20 10:24:51;;;;;;;2.97;2.10;;;;;;;;;;5072951;28;20037;-87
2021/05/20 10:27:17;;;;;;;4.70;1.25;;;;;;;;;;5073965;28;20407;-86
2021/05/20 10:29:43;;;;;;;2.05;1.10;;;;;;;;;;5070070;28;20063;-86
2021/05/20 10:32:09;;;;;;;1.42;1.25;;;;;;;;;;5072116;28;20055;-86
2021/05/20 10:34:37;;;;;;;2.10;1.50;;;;;;;;;;5052069;28;20041;-85
2021/05/20 10:37:04;;;;;;;4.95;1.27;;;;;;;;;;5052348;28;20480;-87
2021/05/20 10:39:30;;;;;;;5.53;1.48;;;;;;;;;;5068971;28;20124;-86
2021/05/20 10:41:56;;;;;;;4.10;1.23;;;;;;;;;;5052471;28;20040;-87
2021/05/20 10:44:23;;;;;;;1.65;1.20;;;;;;;;;;5077234;28;20051;-87
2021/05/20 10:46:59;;;;;;;7.25;1.35;;;;;;;;;;5072282;28;20069;-87
2021/05/20 10:49:44;;;;;;;1.08;0.90;;;;;;;;;;5055533;28;20499;-87
2021/05/20 10:52:28;;;;;;;2.67;1.70;;;;;;;;;;5073477;28;20032;-88
2021/05/20 10:55:01;;;;;;;3.17;1.45;;;;;;;;;;5073211;28;20043;-87
2021/05/20 10:57:27;;;;;;;;;;;;;;;;;;5072440;28;20037;-86
2021/05/20 10:59:53;;;;;;;2.85;1.20;;;;;;;;;;5072033;28;20456;-88
2021/05/20 11:02:39;;;;;;;3.03;1.05;;;;;;;;;;5072099;28;20040;-86
2021/05/20 11:05:05;;;;;;;1.50;1.10;;;;;;;;;;5073244;28;20075;-86
2021/05/20 11:07:31;;;;;;;2.35;1.05;;;;;;;;;;5071830;28;20044;-86
2021/05/20 11:09:57;;;;;;;2.20;1.00;;;;;;;;;;5071904;28;20033;-87
2021/05/20 11:12:23;;;;;;;2.45;1.10;;;;;;;;;;5071753;28;20542;-87
2021/05/20 11:14:50;;;;;;;1.33;1.23;;;;;;;;;;5071911;28;20149;-87
2021/05/20 11:17:29;;;;;;;2.30;1.27;;;;;;;;;;5055280;28;20484;-86
2021/05/20 11:20:13;;;;;;;3.25;1.23;;;;;;;;;;5072872;28;20040;-86
2021/05/20 11:22:45;;;;;;;2.22;1.25;;;;;;;;;;5071477;28;20143;-86
2021/05/20 11:25:12;;;;;;;1.77;1.38;;;;;;;;;;5071545;28;20107;-85
2021/05/20 11:27:38;;;;;;;3.20;1.30;;;;;;;;;;5072725;28;20111;-89
2021/05/20 11:30:04;;;;;;;3.28;1.45;;;;;;;;;;5055124;28;20036;-88
2021/05/20 11:32:31;;;;;;;2.13;1.15;;;;;;;;;;5054952;28;20028;-88
2021/05/20 11:37:43;;;;;;;2.45;1.30;;;;;;;;;;5071307;28;20515;-85
2021/05/20 11:40:29;;;;;;;3.47;1.20;;;;;;;;;;5071425;28;20041;-85
2021/05/20 11:42:55;;;;;;;1.33;1.23;;;;;;;;;;5072427;28;20123;-87
2021/05/20 11:45:39;;;;;;;5.57;1.38;;;;;;;;;;5071319;28;20111;-88
2021/05/20 11:48:06;;;;;;;2.75;1.50;;;;;;;;;;5054704;28;20044;-85
2021/05/20 11:50:34;;;;;;;4.05;1.73;;;;;;;;;;5054653;28;20098;-88
2021/05/20 11:53:10;;;;;;;72.93;5.65;;;;;;;;;;5054826;28;20259;-86
2021/05/20 11:55:37;;;;;;;80.40;6.80;;;;;;;;;;5054388;28;20045;-86
2021/05/20 11:58:03;;;;;;;5.82;3.00;;;;;;;;;;5070812;28;20434;-86
2021/05/20 12:00:29;;;;;;;26.73;2.80;;;;;;;;;;5054396;28;20055;-85
2021/05/20 12:02:55;;;;;;;4.40;3.63;;;;;;;;;;5071161;28;20115;-86
2021/05/20 12:05:23;;;;;;;3.55;3.08;;;;;;;;;;5054443;28;20041;-86
2021/05/20 12:07:49;;;;;;;4.60;3.53;;;;;;;;;;5070868;28;20048;-86
2021/05/20 12:10:15;;;;;;;30.05;4.80;;;;;;;;;;5054341;28;20411;-85
2021/05/20 12:12:42;;;;;;;8.98;4.18;;;;;;;;;;5071064;28;20064;-85
2021/05/20 12:15:18;;;;;;;36.67;4.80;;;;;;;;;;5071052;28;20043;-85
2021/05/20 12:17:44;;;;;;;6.28;4.38;;;;;;;;;;5070834;28;20479;-85
2021/05/20 12:20:11;;;;;;;108.40;10.65;;;;;;;;;;5072119;28;20040;-86
2021/05/20 12:22:38;;;;;;;3.20;1.55;;;;;;;;;;5054034;28;20055;-86
2021/05/20 12:25:06;;;;;;;4.70;2.50;;;;;;;;;;5070708;28;20033;-85
2021/05/20 12:27:35;;;;;;;10.93;3.05;;;;;;;;;;5054340;28;20039;-85
2021/05/20 12:30:01;;;;;;;3.70;2.00;;;;;;;;;;5072000;28;20040;-86
2021/05/20 12:32:30;;;;;;;3.95;1.98;;;;;;;;;;5070799;28;20036;-86
2021/05/20 12:35:10;;;;;;;7.00;2.17;;;;;;;;;;5070890;28;20146;-86
2021/05/20 12:38:00;;;;;;;0.10;0.10;;;;;;;;;;5069580;28;20105;-87
2021/05/20 12:40:28;;;;;;;0.10;0.10;;;;;;;;;;5073255;28;20223;-87
2021/05/20 12:43:03;;;;;;;0.10;0.10;;;;;;;;;;5074656;28;20032;-87
2021/05/20 12:45:29;;;;;;;0.10;0.10;;;;;;;;;;5075728;28;20062;-87
2021/05/20 12:47:55;;;;;;;0.10;0.10;;;;;;;;;;5074587;28;20040;-87
2021/05/20 12:50:34;;;;;;;0.10;0.10;;;;;;;;;;5057955;28;20047;-86
2021/05/20 12:53:00;;;;;;;0.10;0.10;;;;;;;;;;5074408;28;20033;-87
2021/05/20 12:55:39;;;;;;;0.10;0.10;;;;;;;;;;5057877;28;20040;-87
2021/05/20 12:58:05;;;;;;;0.10;0.10;;;;;;;;;;5057751;28;20107;-87
2021/05/20 13:00:55;;;;;;;0.20;0.20;;;;;;;;;;5057929;28;20119;-87
2021/05/20 13:03:21;;;;;;;0.10;0.10;;;;;;;;;;5058248;28;20099;-88
2021/05/20 13:05:48;;;;;;;0.10;0.10;;;;;;;;;;5057756;28;20140;-87
2021/05/20 13:08:25;;;;;;;0.10;0.10;;;;;;;;;;5057656;28;20064;-92
2021/05/20 13:10:51;;;;;;;0.10;0.10;;;;;;;;;;5074132;28;20124;-89
2021/05/20 13:13:35;;;;;;;0.10;0.10;;;;;;;;;;5057919;28;20068;-85
2021/05/20 13:16:18;;;;;;;0.10;0.10;;;;;;;;;;5057775;28;20036;-86
2021/05/20 13:23:43;;;;;;;0.10;0.10;;;;;;;;;;5073972;28;20041;-86
2021/05/20 13:26:09;;;;;;;0.10;0.10;;;;;;;;;;5073863;28;20060;-86
2021/05/20 13:28:35;;;;;;;0.10;0.10;;;;;;;;;;5073766;28;20040;-86
2021/05/20 13:31:03;;;;;;;0.10;0.10;;;;;;;;;;5057292;28;20055;-86
2021/05/20 13:35:59;;;;;;;0.10;0.10;;;;;;;;;;5073689;28;20480;-87
2021/05/20 13:38:25;;;;;;;0.10;0.10;;;;;;;;;;5073422;28;20060;-87
2021/05/20 13:40:55;;;;;;;0.10;0.10;;;;;;;;;;5057022;28;20423;-87
2021/05/20 13:43:21;;;;;;;0.10;0.10;;;;;;;;;;5073718;28;20039;-86
2021/05/20 13:45:47;;;;;;;0.10;0.10;;;;;;;;;;5074511;28;20036;-87
2021/05/20 13:48:13;;;;;;;0.10;0.10;;;;;;;;;;5057034;28;20066;-87
2021/05/20 13:50:40;;;;;;;0.10;0.10;;;;;;;;;;5056459;28;20484;-87
2021/05/20 13:53:06;;;;;;;0.10;0.10;;;;;;;;;;5055845;28;20036;-87
2021/05/20 13:55:32;;;;;;;0.10;0.10;;;;;;;;;;5056602;28;20033;-87
2021/05/20 13:57:58;;;;;;;0.10;0.10;;;;;;;;;;5074240;28;20396;-86
2021/05/20 14:02:51;;;;;;;0.20;0.20;;;;;;;;;;5073046;28;20468;-86
2021/05/20 14:05:17;;;;;;;0.10;0.10;;;;;;;;;;5056630;28;20059;-86
2021/05/20 14:07:44;;;;;;;0.10;0.10;;;;;;;;;;5056802;28;20051;-87
2021/05/20 14:10:10;;;;;;;0.10;0.10;;;;;;;;;;5072955;28;20041;-86
2021/05/20 14:12:36;;;;;;;0.10;0.10;;;;;;;;;;5052892;28;20435;-87
2021/05/20 14:15:02;;;;;;;0.10;0.10;;;;;;;;;;5072265;28;20048;-88
2021/05/20 14:17:28;;;;;;;0.20;0.20;;;;;;;;;;5072731;28;20036;-88
2021/05/20 14:19:57;;;;;;;0.10;0.10;;;;;;;;;;5072743;28;20110;-86
2021/05/20 14:22:23;;;;;;;0.30;0.30;;;;;;;;;;5056443;28;20376;-87
2021/05/20 14:24:49;;;;;;;0.10;0.10;;;;;;;;;;5056104;28;20048;-87
2021/05/20 14:27:17;;;;;;;0.10;0.10;;;;;;;;;;5072654;28;20036;-87
2021/05/20 14:29:43;;;;;;;0.10;0.10;;;;;;;;;;5056000;28;20043;-87
2021/05/20 14:32:09;;;;;;;0.10;0.10;;;;;;;;;;5072582;28;20115;-87
2021/05/20 14:34:35;;;;;;;0.17;0.17;;;;;;;;;;5039565;28;20445;-86
2021/05/20 14:37:03;;;;;;;0.10;0.10;;;;;;;;;;5055857;28;20052;-87
2021/05/20 14:39:29;;;;;;;0.10;0.10;;;;;;;;;;5055763;28;20036;-87
2021/05/20 14:41:56;;;;;;;0.10;0.10;;;;;;;;;;5072212;28;20051;-87
2021/05/20 14:44:22;;;;;;;0.10;0.10;;;;;;;;;;5055552;28;20044;-87
2021/05/20 14:46:49;;;;;;;0.10;0.10;;;;;;;;;;5072420;28;20064;-86
2021/05/20 14:49:36;;;;;;;0.10;0.10;;;;;;;;;;5039180;28;20355;-86
2021/05/20 14:52:02;;;;;;;0.20;0.20;;;;;;;;;;5072284;28;20040;-87
2021/05/20 14:54:30;;;;;;;0.10;0.10;;;;;;;;;;5072039;28;20503;-86
2021/05/20 15:07:30;;;;;;;0.10;0.10;;;;;;;;;;5072919;28;20038;-87